createdAt,value
2018-06-29T00:01:16.977Z,91.50
2018-06-29T00:03:45.963Z,91.50
2018-06-29T00:06:16.299Z,91.70
2018-06-29T00:08:45.102Z,91.70
2018-06-29T00:11:14.540Z,91.70
2018-06-29T00:13:43.786Z,91.90
2018-06-29T00:16:12.348Z,91.70
2018-06-29T00:18:40.898Z,91.60
2018-06-29T00:21:10.501Z,92.00
2018-06-29T00:23:39.129Z,92.00
2018-06-29T00:26:08.178Z,92.50
2018-06-29T00:28:36.732Z,92.50
2018-06-29T00:31:05.263Z,92.30
2018-06-29T00:33:33.792Z,92.30
2018-06-29T00:36:02.325Z,92.40
2018-06-29T00:38:30.900Z,92.60
2018-06-29T00:41:01.034Z,92.50
2018-06-29T00:43:29.650Z,92.50
2018-06-29T00:45:59.850Z,92.60
2018-06-29T00:48:28.847Z,92.80
2018-06-29T00:50:57.370Z,92.60
2018-06-29T00:53:25.906Z,92.30
2018-06-29T00:55:54.502Z,92.10
2018-06-29T00:58:23.023Z,92.10
2018-06-29T01:00:52.289Z,92.40
2018-06-29T01:03:20.951Z,92.20
2018-06-29T01:05:49.547Z,92.10
2018-06-29T01:08:18.242Z,92.10
2018-06-29T01:10:46.666Z,92.10
2018-06-29T01:13:15.250Z,92.30
2018-06-29T01:15:44.363Z,92.00
2018-06-29T01:18:12.970Z,92.10
2018-06-29T01:20:42.736Z,92.30
2018-06-29T01:23:11.294Z,92.50
2018-06-29T01:25:40.269Z,92.70
2018-06-29T01:28:09.285Z,92.80
2018-06-29T01:30:37.911Z,92.90
2018-06-29T01:33:06.966Z,92.80
2018-06-29T01:35:36.676Z,92.60
2018-06-29T01:40:33.590Z,92.70
2018-06-29T01:43:02.132Z,92.90
2018-06-29T01:45:31.043Z,92.90
2018-06-29T01:47:59.602Z,92.90
2018-06-29T01:50:33.025Z,93.00
2018-06-29T01:53:02.098Z,93.10
2018-06-29T01:55:30.631Z,93.10
2018-06-29T01:57:59.878Z,92.80
2018-06-29T02:00:28.434Z,92.40
2018-06-29T02:02:58.022Z,92.30
2018-06-29T02:05:27.575Z,92.50
2018-06-29T02:07:56.153Z,92.40
2018-06-29T02:10:24.715Z,92.40
2018-06-29T02:12:53.761Z,92.40
2018-06-29T02:15:22.396Z,92.50
2018-06-29T02:17:51.325Z,92.30
2018-06-29T02:20:20.486Z,92.30
2018-06-29T02:22:50.148Z,92.40
2018-06-29T02:25:19.404Z,92.40
2018-06-29T02:27:48.007Z,92.40
2018-06-29T02:30:16.535Z,92.50
2018-06-29T02:32:45.095Z,92.40
2018-06-29T02:37:43.693Z,92.60
2018-06-29T02:40:13.350Z,92.90
2018-06-29T02:42:42.067Z,92.80
2018-06-29T02:45:10.653Z,92.60
2018-06-29T02:47:44.295Z,92.60
2018-06-29T02:50:13.891Z,92.50
2018-06-29T02:52:45.138Z,92.80
2018-06-29T02:55:14.566Z,92.80
2018-06-29T02:57:43.117Z,92.80
2018-06-29T03:00:11.744Z,92.80
2018-06-29T03:02:40.450Z,92.60
2018-06-29T03:05:08.974Z,92.40
2018-06-29T03:07:38.738Z,92.40
2018-06-29T03:10:08.171Z,92.60
2018-06-29T03:12:42.114Z,92.70
2018-06-29T03:15:11.781Z,92.70
2018-06-29T03:17:41.334Z,92.80
2018-06-29T03:20:09.916Z,93.00
2018-06-29T03:22:38.468Z,93.00
2018-06-29T03:25:07.025Z,93.00
2018-06-29T03:27:36.503Z,92.90
2018-06-29T03:30:05.826Z,92.70
2018-06-29T03:32:34.681Z,92.70
2018-06-29T03:35:04.223Z,92.70
2018-06-29T03:37:33.067Z,92.50
2018-06-29T03:40:01.879Z,92.70
2018-06-29T03:42:30.408Z,92.80
2018-06-29T03:44:58.940Z,92.80
2018-06-29T03:47:27.477Z,92.60
2018-06-29T03:49:56.547Z,93.10
2018-06-29T03:52:25.440Z,93.10
2018-06-29T03:54:54.067Z,93.10
2018-06-29T03:57:22.599Z,93.10
2018-06-29T03:59:51.166Z,92.90
2018-06-29T04:02:19.712Z,92.40
2018-06-29T04:04:48.861Z,92.30
2018-06-29T04:07:17.803Z,92.30
2018-06-29T04:09:46.634Z,92.30
2018-06-29T04:12:16.073Z,92.60
2018-06-29T04:14:44.603Z,92.70
2018-06-29T04:17:13.160Z,92.80
2018-06-29T04:19:42.299Z,92.70
2018-06-29T04:22:11.576Z,92.50
2018-06-29T04:24:41.040Z,92.20
2018-06-29T04:27:09.622Z,92.10
2018-06-29T04:29:39.050Z,92.30
2018-06-29T04:32:08.523Z,92.40
2018-06-29T04:34:37.018Z,92.30
2018-06-29T04:37:05.597Z,92.40
2018-06-29T04:39:34.192Z,92.50
2018-06-29T04:42:02.711Z,92.70
2018-06-29T04:44:31.280Z,92.60
2018-06-29T04:47:01.151Z,92.70
2018-06-29T04:49:29.899Z,92.60
2018-06-29T04:51:58.470Z,92.60
2018-06-29T04:54:26.990Z,92.90
2018-06-29T04:56:56.463Z,92.60
2018-06-29T04:59:25.011Z,92.60
2018-06-29T05:01:53.550Z,92.60
2018-06-29T05:06:00.109Z,92.50
2018-06-29T05:08:30.270Z,92.10
2018-06-29T05:10:58.823Z,92.30
2018-06-29T05:13:27.378Z,92.50
2018-06-29T05:15:55.996Z,92.10
2018-06-29T05:18:25.207Z,91.70
2018-06-29T05:20:53.784Z,91.30
2018-06-29T05:23:22.383Z,91.00
2018-06-29T05:25:51.243Z,89.40
2018-06-29T05:28:19.766Z,86.40
2018-06-29T05:30:48.335Z,83.40
2018-06-29T05:33:16.884Z,82.50
2018-06-29T05:35:47.476Z,81.60
2018-06-29T05:38:16.014Z,81.10
2018-06-29T05:40:44.556Z,81.90
2018-06-29T05:43:13.123Z,82.10
2018-06-29T05:45:41.692Z,82.50
2018-06-29T05:48:10.223Z,83.20
2018-06-29T05:50:39.711Z,83.30
2018-06-29T05:55:36.511Z,85.10
2018-06-29T05:58:05.345Z,86.80
2018-06-29T06:00:33.990Z,87.50
2018-06-29T06:03:02.583Z,87.70
2018-06-29T06:05:31.129Z,87.70
2018-06-29T06:08:00.525Z,88.10
2018-06-29T06:10:29.107Z,87.70
2018-06-29T06:12:57.703Z,87.00
2018-06-29T06:15:26.278Z,86.20
2018-06-29T06:17:54.799Z,85.80
2018-06-29T06:20:23.409Z,85.80
2018-06-29T06:25:20.206Z,85.50
2018-06-29T06:27:48.819Z,86.40
2018-06-29T06:30:17.345Z,85.90
2018-06-29T06:32:45.963Z,85.60
2018-06-29T06:35:14.506Z,86.50
2018-06-29T06:37:43.822Z,84.70
2018-06-29T06:42:40.544Z,83.50
2018-06-29T06:45:09.384Z,83.80
2018-06-29T06:47:38.039Z,83.80
2018-06-29T06:50:13.059Z,82.20
2018-06-29T06:52:42.828Z,81.20
2018-06-29T06:55:11.402Z,81.70
2018-06-29T06:57:39.966Z,79.10
2018-06-29T07:00:09.255Z,78.20
2018-06-29T07:02:38.605Z,76.20
2018-06-29T07:05:07.228Z,75.90
2018-06-29T07:07:36.137Z,72.20
2018-06-29T07:10:05.008Z,72.10
2018-06-29T07:12:33.712Z,67.80
2018-06-29T07:15:02.211Z,66.00
2018-06-29T07:17:30.779Z,66.20
2018-06-29T07:20:00.350Z,68.00
2018-06-29T07:22:28.975Z,70.90
2018-06-29T07:24:57.623Z,71.80
2018-06-29T07:27:26.259Z,71.90
2018-06-29T07:29:55.107Z,73.60
2018-06-29T07:32:23.791Z,74.00
2018-06-29T07:34:52.544Z,73.80
2018-06-29T07:37:21.120Z,73.20
2018-06-29T07:39:51.222Z,73.60
2018-06-29T07:42:19.750Z,73.80
2018-06-29T07:44:48.258Z,74.90
2018-06-29T07:47:16.813Z,74.70
2018-06-29T07:49:46.027Z,74.60
2018-06-29T07:52:15.050Z,75.90
2018-06-29T07:54:43.834Z,75.10
2018-06-29T07:57:12.459Z,74.10
2018-06-29T07:59:41.247Z,71.20
2018-06-29T08:02:09.814Z,71.90
2018-06-29T08:04:38.412Z,69.60
2018-06-29T08:07:07.183Z,69.50
2018-06-29T08:09:35.757Z,70.20
2018-06-29T08:12:05.321Z,71.00
2018-06-29T08:14:33.867Z,71.50
2018-06-29T08:17:02.459Z,71.00
2018-06-29T08:19:31.714Z,71.90
2018-06-29T08:22:00.606Z,73.20
2018-06-29T08:24:31.888Z,71.20
2018-06-29T08:27:00.500Z,72.70
2018-06-29T08:29:29.110Z,70.30
2018-06-29T08:31:57.683Z,70.20
2018-06-29T08:34:26.252Z,70.50
2018-06-29T08:36:55.870Z,70.00
2018-06-29T08:39:24.954Z,68.60
2018-06-29T08:41:53.535Z,68.50
2018-06-29T08:44:22.109Z,67.60
2018-06-29T08:46:50.818Z,67.90
2018-06-29T08:49:19.321Z,69.20
2018-06-29T08:51:47.919Z,70.60
2018-06-29T08:54:16.463Z,71.00
2018-06-29T08:56:44.997Z,69.00
2018-06-29T08:59:13.778Z,69.80
2018-06-29T09:01:43.014Z,69.50
2018-06-29T09:04:11.678Z,70.60
2018-06-29T09:06:40.279Z,69.80
2018-06-29T09:09:09.583Z,66.40
2018-06-29T09:11:39.327Z,64.40
2018-06-29T09:14:07.856Z,64.10
2018-06-29T09:16:36.449Z,66.60
2018-06-29T09:19:05.056Z,65.30
2018-06-29T09:21:33.574Z,63.80
2018-06-29T09:24:03.293Z,63.20
2018-06-29T09:26:31.948Z,64.80
2018-06-29T09:29:01.095Z,64.00
2018-06-29T09:31:29.711Z,65.30
2018-06-29T09:33:58.287Z,65.30
2018-06-29T09:36:26.887Z,64.30
2018-06-29T09:38:56.623Z,64.30
2018-06-29T09:41:25.244Z,63.00
2018-06-29T09:43:53.803Z,64.30
2018-06-29T09:46:22.349Z,65.80
2018-06-29T09:48:51.340Z,64.30
2018-06-29T09:51:20.616Z,63.00
2018-06-29T09:53:49.228Z,64.70
2018-06-29T09:56:18.310Z,63.30
2018-06-29T09:58:48.779Z,65.70
2018-06-29T10:01:17.433Z,65.70
2018-06-29T10:03:46.014Z,61.20
2018-06-29T10:06:14.610Z,59.60
2018-06-29T10:08:43.186Z,59.10
2018-06-29T10:11:11.785Z,56.20
2018-06-29T10:13:41.944Z,53.80
2018-06-29T10:16:11.772Z,54.80
2018-06-29T10:18:43.064Z,52.70
2018-06-29T10:21:11.743Z,53.10
2018-06-29T10:23:40.545Z,55.30
2018-06-29T10:26:09.179Z,53.50
2018-06-29T10:28:39.309Z,53.40
2018-06-29T10:31:07.992Z,52.00
2018-06-29T10:33:37.163Z,49.50
2018-06-29T10:36:06.350Z,50.90
2018-06-29T10:38:35.226Z,53.50
2018-06-29T10:41:05.008Z,53.80
2018-06-29T10:43:33.578Z,53.20
2018-06-29T10:46:02.712Z,53.20
2018-06-29T10:48:31.319Z,53.00
2018-06-29T10:51:00.435Z,52.90
2018-06-29T10:53:29.086Z,52.30
2018-06-29T10:55:58.788Z,52.00
2018-06-29T10:58:27.452Z,51.10
2018-06-29T11:00:56.621Z,50.20
2018-06-29T11:03:26.060Z,50.90
2018-06-29T11:05:56.347Z,49.80
2018-06-29T11:08:26.563Z,49.30
2018-06-29T11:10:55.212Z,48.20
2018-06-29T11:13:24.521Z,47.60
2018-06-29T11:15:53.064Z,50.10
2018-06-29T11:18:22.218Z,48.00
2018-06-29T11:20:51.061Z,48.90
2018-06-29T11:23:21.500Z,48.40
2018-06-29T11:25:50.803Z,49.40
2018-06-29T11:28:19.927Z,47.20
2018-06-29T11:30:49.460Z,49.40
2018-06-29T11:33:19.200Z,51.00
2018-06-29T11:35:47.792Z,50.80
2018-06-29T11:38:18.923Z,50.70
2018-06-29T11:40:47.541Z,51.70
2018-06-29T11:43:16.084Z,49.50
2018-06-29T11:45:46.824Z,49.40
2018-06-29T11:48:15.444Z,49.00
2018-06-29T11:50:44.379Z,49.50
2018-06-29T11:53:14.504Z,49.30
2018-06-29T11:55:44.101Z,47.60
2018-06-29T11:58:23.023Z,47.50
2018-06-29T12:00:52.772Z,49.70
2018-06-29T12:03:24.375Z,50.50
2018-06-29T12:05:53.415Z,51.80
2018-06-29T12:08:22.023Z,50.90
2018-06-29T12:10:53.170Z,48.00
2018-06-29T12:13:22.183Z,47.00
2018-06-29T12:18:36.402Z,49.70
2018-06-29T12:21:11.452Z,49.30
2018-06-29T12:23:57.066Z,46.30
2018-06-29T12:29:05.281Z,45.70
2018-06-29T12:31:34.723Z,46.30
2018-06-29T12:34:05.707Z,46.00
2018-06-29T12:36:42.999Z,46.30
2018-06-29T12:39:22.910Z,45.40
2018-06-29T12:41:53.696Z,46.10
2018-06-29T12:44:36.754Z,45.20
2018-06-29T12:47:05.840Z,44.20
2018-06-29T12:49:36.102Z,44.50
2018-06-29T12:52:05.186Z,44.90
2018-06-29T12:54:34.815Z,46.40
2018-06-29T12:57:04.816Z,45.60
2018-06-29T12:59:34.649Z,46.30
2018-06-29T13:02:04.274Z,43.50
2018-06-29T13:04:33.078Z,43.60
2018-06-29T13:07:02.653Z,43.70
2018-06-29T13:09:31.410Z,44.20
2018-06-29T13:12:00.583Z,44.40
2018-06-29T13:14:30.410Z,43.90
2018-06-29T13:16:59.036Z,43.40
2018-06-29T13:19:29.365Z,42.80
2018-06-29T13:21:58.375Z,44.10
2018-06-29T13:24:27.726Z,44.30
2018-06-29T13:26:56.229Z,43.60
2018-06-29T13:29:25.829Z,43.90
2018-06-29T13:31:55.521Z,44.80
2018-06-29T13:34:25.130Z,41.30
2018-06-29T13:36:55.563Z,41.90
2018-06-29T13:39:24.800Z,43.30
2018-06-29T13:41:55.568Z,42.30
2018-06-29T13:44:24.808Z,42.30
2018-06-29T13:46:53.703Z,43.10
2018-06-29T13:49:23.362Z,40.80
2018-06-29T13:51:53.219Z,41.30
2018-06-29T13:54:22.496Z,42.60
2018-06-29T13:56:51.776Z,43.10
2018-06-29T13:59:20.503Z,41.50
2018-06-29T14:01:49.650Z,41.00
2018-06-29T14:04:18.272Z,41.20
2018-06-29T14:06:47.880Z,42.40
2018-06-29T14:09:16.620Z,43.20
2018-06-29T14:11:46.069Z,42.30
2018-06-29T14:14:16.281Z,42.60
2018-06-29T14:16:46.379Z,41.90
2018-06-29T14:19:16.329Z,41.20
2018-06-29T14:21:45.315Z,41.30
2018-06-29T14:24:14.888Z,40.00
2018-06-29T14:26:45.487Z,40.00
2018-06-29T14:29:17.766Z,40.00
2018-06-29T14:31:46.445Z,39.80
2018-06-29T14:34:16.296Z,40.20
2018-06-29T14:36:46.397Z,39.90
2018-06-29T14:39:18.378Z,39.50
2018-06-29T14:41:47.336Z,40.30
2018-06-29T14:44:21.026Z,40.70
2018-06-29T14:46:54.591Z,41.00
2018-06-29T14:49:27.191Z,43.40
2018-06-29T14:51:56.818Z,42.30
2018-06-29T14:54:31.154Z,43.60
2018-06-29T15:00:09.992Z,43.40
2018-06-29T15:03:02.472Z,42.50
2018-06-29T15:05:31.150Z,42.60
2018-06-29T15:07:59.763Z,43.10
2018-06-29T15:10:28.328Z,43.70
2018-06-29T15:12:57.115Z,42.50
2018-06-29T15:15:25.834Z,43.30
2018-06-29T15:17:55.615Z,42.90
2018-06-29T15:20:25.008Z,43.10
2018-06-29T15:22:53.553Z,43.50
2018-06-29T15:25:22.128Z,44.50
2018-06-29T15:27:50.751Z,43.40
2018-06-29T15:30:19.323Z,43.30
2018-06-29T15:32:47.911Z,43.40
2018-06-29T15:35:16.500Z,44.50
2018-06-29T15:37:45.071Z,43.60
2018-06-29T15:40:17.289Z,42.90
2018-06-29T15:42:45.855Z,44.40
2018-06-29T15:45:14.496Z,44.40
2018-06-29T15:47:43.091Z,45.40
2018-06-29T15:50:11.671Z,44.80
2018-06-29T15:52:40.288Z,44.90
2018-06-29T15:55:09.628Z,43.70
2018-06-29T15:57:39.749Z,42.90
2018-06-29T16:00:11.480Z,43.70
2018-06-29T16:02:42.299Z,44.10
2018-06-29T16:05:13.778Z,44.60
2018-06-29T16:07:46.252Z,45.10
2018-06-29T16:10:14.860Z,45.00
2018-06-29T16:12:45.314Z,44.20
2018-06-29T16:15:16.109Z,43.80
2018-06-29T16:17:44.769Z,44.50
2018-06-29T16:20:21.084Z,44.70
2018-06-29T16:22:49.695Z,45.30
2018-06-29T16:27:46.733Z,46.10
2018-06-29T16:30:17.340Z,47.60
2018-06-29T16:32:46.819Z,47.90
2018-06-29T16:35:16.777Z,48.20
2018-06-29T16:37:46.245Z,47.20
2018-06-29T16:40:16.068Z,48.10
2018-06-29T16:42:46.110Z,48.00
2018-06-29T16:45:15.069Z,48.60
2018-06-29T16:47:45.324Z,48.60
2018-06-29T16:50:16.922Z,47.80
2018-06-29T16:52:46.844Z,48.10
2018-06-29T16:57:44.199Z,46.60
2018-06-29T17:00:13.988Z,47.10
2018-06-29T17:02:43.222Z,46.50
2018-06-29T17:05:13.406Z,46.60
2018-06-29T17:07:42.105Z,47.80
2018-06-29T17:10:12.265Z,47.00
2018-06-29T17:12:42.067Z,46.70
2018-06-29T17:15:10.899Z,45.50
2018-06-29T17:17:39.859Z,45.80
2018-06-29T17:20:09.172Z,46.10
2018-06-29T17:22:39.157Z,46.20
2018-06-29T17:25:08.925Z,46.20
2018-06-29T17:27:37.722Z,46.80
2018-06-29T17:30:07.699Z,46.50
2018-06-29T17:32:38.423Z,46.50
2018-06-29T17:35:08.282Z,45.90
2018-06-29T17:37:38.343Z,46.50
2018-06-29T17:40:06.960Z,46.20
2018-06-29T17:42:35.559Z,46.50
2018-06-29T17:45:04.521Z,46.60
2018-06-29T17:47:34.724Z,46.00
2018-06-29T17:50:08.425Z,46.50
2018-06-29T17:52:37.970Z,47.10
2018-06-29T17:55:08.384Z,47.00
2018-06-29T17:57:38.580Z,46.30
2018-06-29T18:00:07.345Z,46.10
2018-06-29T18:02:36.393Z,46.30
2018-06-29T18:05:05.158Z,46.20
2018-06-29T18:07:37.001Z,46.10
2018-06-29T18:10:05.808Z,46.70
2018-06-29T18:12:37.014Z,46.80
2018-06-29T18:17:36.822Z,47.70
2018-06-29T18:20:05.758Z,47.50
2018-06-29T18:22:34.335Z,47.70
2018-06-29T18:25:03.073Z,48.00
2018-06-29T18:27:31.703Z,48.40
2018-06-29T18:30:03.419Z,49.20
2018-06-29T18:32:31.933Z,52.70
2018-06-29T18:35:02.358Z,55.00
2018-06-29T18:37:31.916Z,55.70
2018-06-29T18:40:01.430Z,56.10
2018-06-29T18:42:31.959Z,57.20
2018-06-29T18:45:14.579Z,58.00
2018-06-29T18:47:56.065Z,58.70
2018-06-29T19:08:56.655Z,60.90
2018-06-29T19:11:36.629Z,64.10
2018-06-29T19:14:06.435Z,64.00
2018-06-29T19:16:37.376Z,64.60
2018-06-29T19:19:07.980Z,65.80
2018-06-29T19:21:38.818Z,66.50
2018-06-29T19:24:14.561Z,66.10
2018-06-29T19:26:43.989Z,66.30
2018-06-29T19:29:13.537Z,67.00
2018-06-29T19:31:43.047Z,67.30
2018-06-29T19:34:15.471Z,67.40
2018-06-29T19:37:02.872Z,67.40
2018-06-29T19:39:32.207Z,67.80
2018-06-29T19:42:31.851Z,68.80
2018-06-29T19:45:16.566Z,69.00
2018-06-29T19:53:31.069Z,68.50
2018-06-29T19:56:00.421Z,68.90
2018-06-29T19:58:36.126Z,69.30
2018-06-29T20:01:06.688Z,69.60
2018-06-29T20:03:43.705Z,69.90
2018-06-29T20:06:19.833Z,69.00
2018-06-29T20:08:55.554Z,70.20
2018-06-29T20:11:24.635Z,71.20
2018-06-29T20:13:54.564Z,71.70
2018-06-29T20:16:23.783Z,72.70
2018-06-29T20:21:32.796Z,73.70
2018-06-29T20:24:03.209Z,73.70
2018-06-29T20:26:33.167Z,73.70
2018-06-29T20:29:02.288Z,74.10
2018-06-29T20:31:31.317Z,74.70
2018-06-29T20:34:02.976Z,75.70
2018-06-29T20:36:43.749Z,74.80
2018-06-29T20:39:14.609Z,73.90
2018-06-29T20:41:44.953Z,73.30
2018-06-29T20:44:13.733Z,73.30
2018-06-29T20:46:42.698Z,73.70
2018-06-29T20:49:11.710Z,75.00
2018-06-29T20:51:40.939Z,74.90
2018-06-29T20:54:09.737Z,74.60
2018-06-29T20:56:40.603Z,75.00
2018-06-29T20:59:12.734Z,74.90
2018-06-29T21:05:03.272Z,74.90
2018-06-29T21:07:35.445Z,74.40
2018-06-29T21:10:10.464Z,75.50
2018-06-29T21:12:45.480Z,76.30
2018-06-29T22:01:00.076Z,79.40
2018-06-29T22:03:29.135Z,79.80
2018-06-29T22:05:58.437Z,79.90
2018-06-29T22:08:27.209Z,79.90
2018-06-29T22:10:56.750Z,80.10
2018-06-29T22:13:25.515Z,80.00
2018-06-29T22:15:54.253Z,80.40
2018-06-29T22:18:23.982Z,81.10
2018-06-29T22:20:54.219Z,80.70
2018-06-29T22:23:23.640Z,80.80
2018-06-29T22:25:53.004Z,80.90
2018-06-29T22:28:22.428Z,80.80
2018-06-29T22:30:51.861Z,81.20
2018-06-29T22:33:21.604Z,81.00
2018-06-29T22:35:50.416Z,81.00
2018-06-29T22:38:19.533Z,81.10
2018-06-29T22:40:48.396Z,81.00
2018-06-29T22:43:20.313Z,81.20
2018-06-29T22:45:49.423Z,81.10
2018-06-29T22:48:18.991Z,81.50
2018-06-29T22:50:49.074Z,81.50
2018-06-29T22:53:18.794Z,81.90
2018-06-29T22:55:49.141Z,82.00
2018-06-29T22:58:17.916Z,82.00
2018-06-29T23:00:47.436Z,81.90
2018-06-29T23:05:44.743Z,82.30
2018-06-29T23:08:19.211Z,82.40
2018-06-29T23:10:49.173Z,82.90
2018-06-29T23:13:17.994Z,83.00
2018-06-29T23:15:46.926Z,83.20
2018-06-29T23:18:15.791Z,83.10
2018-06-29T23:20:44.660Z,83.00
2018-06-29T23:23:13.744Z,83.20
2018-06-29T23:25:44.065Z,83.20
2018-06-29T23:28:13.381Z,83.90
2018-06-29T23:30:43.102Z,84.60
2018-06-29T23:33:13.364Z,84.60
2018-06-29T23:35:43.243Z,84.50
2018-06-29T23:38:12.418Z,84.40
2018-06-29T23:40:44.533Z,84.60
2018-06-29T23:43:14.316Z,84.90
2018-06-29T23:45:43.659Z,85.40
2018-06-29T23:48:12.339Z,85.30
2018-06-29T23:50:40.962Z,85.30
2018-06-29T23:53:11.447Z,85.10
2018-06-29T23:55:41.048Z,84.80
2018-06-29T23:58:10.009Z,84.70
